sensor_id;sensor_type;location;lat;lon;timestamp;P1;durP1;ratioP1;P2;durP2;ratioP2
67819;SDS011;54618;52.018;5.576;2023-03-14T00:01:08;7.03;;;2.20;;
67819;SDS011;54618;52.018;5.576;2023-03-14T00:03:35;6.57;;;2.08;;
67819;SDS011;54618;52.018;5.576;2023-03-14T00:06:04;6.55;;;2.03;;
67819;SDS011;54618;52.018;5.576;2023-03-14T00:08:30;8.02;;;2.25;;
67819;SDS011;54618;52.018;5.576;2023-03-14T00:10:56;6.97;;;2.35;;
67819;SDS011;54618;52.018;5.576;2023-03-14T00:13:23;6.40;;;2.10;;
67819;SDS011;54618;52.018;5.576;2023-03-14T00:15:48;7.18;;;2.33;;
67819;SDS011;54618;52.018;5.576;2023-03-14T00:18:14;7.93;;;2.30;;
67819;SDS011;54618;52.018;5.576;2023-03-14T00:20:40;8.00;;;2.47;;
67819;SDS011;54618;52.018;5.576;2023-03-14T00:23:06;6.93;;;2.53;;
67819;SDS011;54618;52.018;5.576;2023-03-14T00:25:31;6.75;;;2.15;;
67819;SDS011;54618;52.018;5.576;2023-03-14T00:27:57;7.53;;;2.30;;
67819;SDS011;54618;52.018;5.576;2023-03-14T00:30:22;5.25;;;1.80;;
67819;SDS011;54618;52.018;5.576;2023-03-14T00:32:48;7.25;;;2.10;;
67819;SDS011;54618;52.018;5.576;2023-03-14T00:35:13;7.60;;;1.95;;
67819;SDS011;54618;52.018;5.576;2023-03-14T00:37:40;7.70;;;2.30;;
67819;SDS011;54618;52.018;5.576;2023-03-14T00:40:06;6.00;;;1.98;;
67819;SDS011;54618;52.018;5.576;2023-03-14T00:42:33;5.40;;;2.00;;
67819;SDS011;54618;52.018;5.576;2023-03-14T00:44:58;7.35;;;2.05;;
67819;SDS011;54618;52.018;5.576;2023-03-14T00:47:24;6.60;;;1.88;;
67819;SDS011;54618;52.018;5.576;2023-03-14T00:49:49;5.45;;;1.80;;
67819;SDS011;54618;52.018;5.576;2023-03-14T00:52:15;6.75;;;2.22;;
67819;SDS011;54618;52.018;5.576;2023-03-14T00:54:40;6.90;;;2.05;;
67819;SDS011;54618;52.018;5.576;2023-03-14T00:57:06;7.20;;;1.98;;
67819;SDS011;54618;52.018;5.576;2023-03-14T00:59:31;6.57;;;2.13;;
67819;SDS011;54618;52.018;5.576;2023-03-14T01:01:58;6.70;;;1.85;;
67819;SDS011;54618;52.018;5.576;2023-03-14T01:04:23;7.35;;;2.28;;
67819;SDS011;54618;52.018;5.576;2023-03-14T01:06:49;5.28;;;1.65;;
67819;SDS011;54618;52.018;5.576;2023-03-14T01:09:14;7.72;;;2.22;;
67819;SDS011;54618;52.018;5.576;2023-03-14T01:11:42;6.93;;;2.25;;
67819;SDS011;54618;52.018;5.576;2023-03-14T01:14:11;7.55;;;2.10;;
67819;SDS011;54618;52.018;5.576;2023-03-14T01:16:37;6.50;;;1.90;;
67819;SDS011;54618;52.018;5.576;2023-03-14T01:19:03;6.15;;;2.00;;
67819;SDS011;54618;52.018;5.576;2023-03-14T01:21:30;5.97;;;2.05;;
67819;SDS011;54618;52.018;5.576;2023-03-14T01:23:57;6.97;;;1.95;;
67819;SDS011;54618;52.018;5.576;2023-03-14T01:26:25;4.88;;;1.80;;
67819;SDS011;54618;52.018;5.576;2023-03-14T01:28:52;5.97;;;1.83;;
67819;SDS011;54618;52.018;5.576;2023-03-14T01:31:19;5.88;;;1.67;;
67819;SDS011;54618;52.018;5.576;2023-03-14T01:33:45;6.20;;;1.95;;
67819;SDS011;54618;52.018;5.576;2023-03-14T01:36:11;4.65;;;1.60;;
67819;SDS011;54618;52.018;5.576;2023-03-14T01:38:37;5.35;;;1.85;;
67819;SDS011;54618;52.018;5.576;2023-03-14T01:41:04;5.18;;;1.98;;
67819;SDS011;54618;52.018;5.576;2023-03-14T01:43:31;6.28;;;1.95;;
67819;SDS011;54618;52.018;5.576;2023-03-14T01:48:31;6.82;;;1.85;;
67819;SDS011;54618;52.018;5.576;2023-03-14T01:51:09;5.90;;;1.80;;
67819;SDS011;54618;52.018;5.576;2023-03-14T01:53:37;5.22;;;1.48;;
67819;SDS011;54618;52.018;5.576;2023-03-14T01:56:06;6.03;;;1.90;;
67819;SDS011;54618;52.018;5.576;2023-03-14T01:58:34;5.13;;;2.08;;
67819;SDS011;54618;52.018;5.576;2023-03-14T02:01:00;5.35;;;2.15;;
67819;SDS011;54618;52.018;5.576;2023-03-14T02:03:27;4.32;;;1.60;;
67819;SDS011;54618;52.018;5.576;2023-03-14T02:05:56;3.70;;;1.70;;
67819;SDS011;54618;52.018;5.576;2023-03-14T02:08:25;6.40;;;1.90;;
67819;SDS011;54618;52.018;5.576;2023-03-14T02:10:52;4.53;;;1.63;;
67819;SDS011;54618;52.018;5.576;2023-03-14T02:13:19;4.95;;;1.63;;
67819;SDS011;54618;52.018;5.576;2023-03-14T02:15:46;3.95;;;1.45;;
67819;SDS011;54618;52.018;5.576;2023-03-14T02:18:12;5.85;;;1.83;;
67819;SDS011;54618;52.018;5.576;2023-03-14T02:23:48;5.25;;;1.52;;
67819;SDS011;54618;52.018;5.576;2023-03-14T02:26:31;4.60;;;1.60;;
67819;SDS011;54618;52.018;5.576;2023-03-14T02:29:07;4.82;;;1.63;;
67819;SDS011;54618;52.018;5.576;2023-03-14T02:31:32;4.82;;;1.45;;
67819;SDS011;54618;52.018;5.576;2023-03-14T02:33:58;5.32;;;1.85;;
67819;SDS011;54618;52.018;5.576;2023-03-14T02:36:24;6.35;;;1.52;;
67819;SDS011;54618;52.018;5.576;2023-03-14T02:39:33;6.85;;;1.70;;
67819;SDS011;54618;52.018;5.576;2023-03-14T02:41:44;4.07;;;1.58;;
67819;SDS011;54618;52.018;5.576;2023-03-14T02:44:11;5.15;;;1.58;;
67819;SDS011;54618;52.018;5.576;2023-03-14T02:46:36;3.50;;;1.40;;
67819;SDS011;54618;52.018;5.576;2023-03-14T02:49:03;6.70;;;1.77;;
67819;SDS011;54618;52.018;5.576;2023-03-14T02:51:32;5.43;;;1.88;;
67819;SDS011;54618;52.018;5.576;2023-03-14T02:53:58;4.60;;;1.60;;
67819;SDS011;54618;52.018;5.576;2023-03-14T02:56:23;4.03;;;1.45;;
67819;SDS011;54618;52.018;5.576;2023-03-14T02:58:49;5.20;;;1.60;;
67819;SDS011;54618;52.018;5.576;2023-03-14T03:01:15;4.85;;;1.30;;
67819;SDS011;54618;52.018;5.576;2023-03-14T03:03:40;3.53;;;1.30;;
67819;SDS011;54618;52.018;5.576;2023-03-14T03:06:06;4.75;;;1.67;;
67819;SDS011;54618;52.018;5.576;2023-03-14T03:08:32;3.70;;;1.45;;
67819;SDS011;54618;52.018;5.576;2023-03-14T03:10:58;4.10;;;1.30;;
67819;SDS011;54618;52.018;5.576;2023-03-14T03:13:23;3.97;;;1.40;;
67819;SDS011;54618;52.018;5.576;2023-03-14T03:15:49;4.18;;;1.33;;
67819;SDS011;54618;52.018;5.576;2023-03-14T03:18:15;2.83;;;1.45;;
67819;SDS011;54618;52.018;5.576;2023-03-14T03:20:40;3.35;;;1.20;;
67819;SDS011;54618;52.018;5.576;2023-03-14T03:23:06;4.93;;;1.40;;
67819;SDS011;54618;52.018;5.576;2023-03-14T03:25:32;2.75;;;1.13;;
67819;SDS011;54618;52.018;5.576;2023-03-14T03:27:57;2.80;;;1.15;;
67819;SDS011;54618;52.018;5.576;2023-03-14T03:30:23;3.47;;;1.10;;
67819;SDS011;54618;52.018;5.576;2023-03-14T03:32:49;3.15;;;1.27;;
67819;SDS011;54618;52.018;5.576;2023-03-14T03:35:15;5.00;;;1.00;;
67819;SDS011;54618;52.018;5.576;2023-03-14T03:37:41;3.83;;;1.30;;
67819;SDS011;54618;52.018;5.576;2023-03-14T03:40:07;4.40;;;1.23;;
67819;SDS011;54618;52.018;5.576;2023-03-14T03:42:33;3.63;;;1.23;;
67819;SDS011;54618;52.018;5.576;2023-03-14T03:45:00;3.67;;;1.40;;
67819;SDS011;54618;52.018;5.576;2023-03-14T03:47:26;5.28;;;1.38;;
67819;SDS011;54618;52.018;5.576;2023-03-14T03:49:52;3.42;;;1.20;;
67819;SDS011;54618;52.018;5.576;2023-03-14T03:52:17;3.55;;;1.25;;
67819;SDS011;54618;52.018;5.576;2023-03-14T03:54:43;3.10;;;1.20;;
67819;SDS011;54618;52.018;5.576;2023-03-14T03:57:10;3.97;;;1.30;;
67819;SDS011;54618;52.018;5.576;2023-03-14T03:59:35;4.10;;;1.27;;
67819;SDS011;54618;52.018;5.576;2023-03-14T04:02:01;3.15;;;1.10;;
67819;SDS011;54618;52.018;5.576;2023-03-14T04:04:26;3.47;;;1.05;;
67819;SDS011;54618;52.018;5.576;2023-03-14T04:06:52;2.60;;;1.13;;
67819;SDS011;54618;52.018;5.576;2023-03-14T04:09:17;4.13;;;1.30;;
67819;SDS011;54618;52.018;5.576;2023-03-14T04:11:43;5.45;;;1.17;;
67819;SDS011;54618;52.018;5.576;2023-03-14T04:14:09;4.05;;;1.20;;
67819;SDS011;54618;52.018;5.576;2023-03-14T04:16:35;2.92;;;0.88;;
67819;SDS011;54618;52.018;5.576;2023-03-14T04:19:01;2.92;;;1.00;;
67819;SDS011;54618;52.018;5.576;2023-03-14T04:21:27;3.60;;;1.15;;
67819;SDS011;54618;52.018;5.576;2023-03-14T04:23:53;2.45;;;0.90;;
67819;SDS011;54618;52.018;5.576;2023-03-14T04:26:18;4.72;;;1.20;;
67819;SDS011;54618;52.018;5.576;2023-03-14T04:28:44;2.80;;;1.08;;
67819;SDS011;54618;52.018;5.576;2023-03-14T04:31:11;3.25;;;1.10;;
67819;SDS011;54618;52.018;5.576;2023-03-14T04:33:40;1.88;;;0.93;;
67819;SDS011;54618;52.018;5.576;2023-03-14T04:36:06;4.32;;;1.30;;
67819;SDS011;54618;52.018;5.576;2023-03-14T04:38:32;2.42;;;1.00;;
67819;SDS011;54618;52.018;5.576;2023-03-14T04:40:58;3.22;;;0.80;;
67819;SDS011;54618;52.018;5.576;2023-03-14T04:43:24;2.63;;;0.93;;
67819;SDS011;54618;52.018;5.576;2023-03-14T04:45:50;2.83;;;1.05;;
67819;SDS011;54618;52.018;5.576;2023-03-14T04:48:18;3.28;;;1.10;;
67819;SDS011;54618;52.018;5.576;2023-03-14T04:50:43;3.78;;;1.23;;
67819;SDS011;54618;52.018;5.576;2023-03-14T04:53:11;5.35;;;1.13;;
67819;SDS011;54618;52.018;5.576;2023-03-14T04:55:37;3.30;;;1.10;;
67819;SDS011;54618;52.018;5.576;2023-03-14T04:58:02;2.92;;;0.85;;
67819;SDS011;54618;52.018;5.576;2023-03-14T05:00:28;2.80;;;1.05;;
67819;SDS011;54618;52.018;5.576;2023-03-14T05:02:53;3.05;;;0.90;;
67819;SDS011;54618;52.018;5.576;2023-03-14T05:05:19;3.47;;;1.05;;
67819;SDS011;54618;52.018;5.576;2023-03-14T05:07:45;4.07;;;1.20;;
67819;SDS011;54618;52.018;5.576;2023-03-14T05:10:10;3.08;;;1.00;;
67819;SDS011;54618;52.018;5.576;2023-03-14T05:12:36;3.15;;;1.20;;
67819;SDS011;54618;52.018;5.576;2023-03-14T05:15:01;3.33;;;1.00;;
67819;SDS011;54618;52.018;5.576;2023-03-14T05:17:29;2.53;;;1.00;;
67819;SDS011;54618;52.018;5.576;2023-03-14T05:19:55;4.18;;;1.20;;
67819;SDS011;54618;52.018;5.576;2023-03-14T05:22:20;3.03;;;0.95;;
67819;SDS011;54618;52.018;5.576;2023-03-14T05:24:46;3.00;;;1.08;;
67819;SDS011;54618;52.018;5.576;2023-03-14T05:27:11;3.45;;;1.20;;
67819;SDS011;54618;52.018;5.576;2023-03-14T05:29:38;2.72;;;1.10;;
67819;SDS011;54618;52.018;5.576;2023-03-14T05:32:03;2.55;;;0.88;;
67819;SDS011;54618;52.018;5.576;2023-03-14T05:34:29;2.88;;;1.13;;
67819;SDS011;54618;52.018;5.576;2023-03-14T05:36:54;2.47;;;0.80;;
67819;SDS011;54618;52.018;5.576;2023-03-14T05:39:21;2.22;;;0.70;;
67819;SDS011;54618;52.018;5.576;2023-03-14T05:41:46;3.13;;;0.90;;
67819;SDS011;54618;52.018;5.576;2023-03-14T05:44:12;2.50;;;1.00;;
67819;SDS011;54618;52.018;5.576;2023-03-14T05:46:37;2.50;;;0.88;;
67819;SDS011;54618;52.018;5.576;2023-03-14T05:49:03;3.22;;;1.00;;
67819;SDS011;54618;52.018;5.576;2023-03-14T05:51:29;3.22;;;1.00;;
67819;SDS011;54618;52.018;5.576;2023-03-14T05:53:54;2.78;;;0.90;;
67819;SDS011;54618;52.018;5.576;2023-03-14T05:56:20;2.42;;;0.75;;
67819;SDS011;54618;52.018;5.576;2023-03-14T05:58:45;2.80;;;0.90;;
67819;SDS011;54618;52.018;5.576;2023-03-14T06:01:11;2.83;;;0.90;;
67819;SDS011;54618;52.018;5.576;2023-03-14T06:03:36;2.30;;;0.80;;
67819;SDS011;54618;52.018;5.576;2023-03-14T06:06:02;2.30;;;0.82;;
67819;SDS011;54618;52.018;5.576;2023-03-14T06:08:28;2.92;;;0.85;;
67819;SDS011;54618;52.018;5.576;2023-03-14T06:10:53;3.28;;;0.90;;
67819;SDS011;54618;52.018;5.576;2023-03-14T06:13:19;1.90;;;0.80;;
67819;SDS011;54618;52.018;5.576;2023-03-14T06:15:45;3.10;;;1.00;;
67819;SDS011;54618;52.018;5.576;2023-03-14T06:18:10;3.60;;;0.93;;
67819;SDS011;54618;52.018;5.576;2023-03-14T06:20:37;2.10;;;0.88;;
67819;SDS011;54618;52.018;5.576;2023-03-14T06:23:07;2.60;;;0.80;;
67819;SDS011;54618;52.018;5.576;2023-03-14T06:25:33;2.55;;;0.90;;
67819;SDS011;54618;52.018;5.576;2023-03-14T06:28:00;2.05;;;1.00;;
67819;SDS011;54618;52.018;5.576;2023-03-14T06:30:26;2.15;;;0.75;;
67819;SDS011;54618;52.018;5.576;2023-03-14T06:32:51;2.42;;;0.70;;
67819;SDS011;54618;52.018;5.576;2023-03-14T06:35:17;2.33;;;0.77;;
67819;SDS011;54618;52.018;5.576;2023-03-14T06:37:42;2.38;;;0.90;;
67819;SDS011;54618;52.018;5.576;2023-03-14T06:40:09;2.50;;;0.95;;
67819;SDS011;54618;52.018;5.576;2023-03-14T06:42:35;2.08;;;0.70;;
67819;SDS011;54618;52.018;5.576;2023-03-14T06:45:01;1.70;;;0.90;;
67819;SDS011;54618;52.018;5.576;2023-03-14T06:47:28;2.03;;;0.90;;
67819;SDS011;54618;52.018;5.576;2023-03-14T06:49:53;1.58;;;0.80;;
67819;SDS011;54618;52.018;5.576;2023-03-14T06:52:19;1.98;;;0.77;;
67819;SDS011;54618;52.018;5.576;2023-03-14T06:54:44;1.98;;;0.80;;
67819;SDS011;54618;52.018;5.576;2023-03-14T06:57:10;1.92;;;0.77;;
67819;SDS011;54618;52.018;5.576;2023-03-14T06:59:36;1.45;;;0.75;;
67819;SDS011;54618;52.018;5.576;2023-03-14T07:02:01;1.92;;;0.70;;
67819;SDS011;54618;52.018;5.576;2023-03-14T07:04:27;1.63;;;0.60;;
67819;SDS011;54618;52.018;5.576;2023-03-14T07:06:52;2.10;;;0.70;;
67819;SDS011;54618;52.018;5.576;2023-03-14T07:09:18;1.67;;;0.60;;
67819;SDS011;54618;52.018;5.576;2023-03-14T07:11:43;1.98;;;0.60;;
67819;SDS011;54618;52.018;5.576;2023-03-14T07:14:10;2.08;;;0.60;;
67819;SDS011;54618;52.018;5.576;2023-03-14T07:16:36;1.63;;;0.65;;
67819;SDS011;54618;52.018;5.576;2023-03-14T07:19:02;1.58;;;0.60;;
67819;SDS011;54618;52.018;5.576;2023-03-14T07:21:28;2.15;;;0.70;;
67819;SDS011;54618;52.018;5.576;2023-03-14T07:23:54;1.65;;;0.50;;
67819;SDS011;54618;52.018;5.576;2023-03-14T07:26:20;2.03;;;0.70;;
67819;SDS011;54618;52.018;5.576;2023-03-14T07:28:45;2.35;;;0.73;;
67819;SDS011;54618;52.018;5.576;2023-03-14T07:31:11;1.65;;;0.65;;
67819;SDS011;54618;52.018;5.576;2023-03-14T07:33:37;1.33;;;0.57;;
67819;SDS011;54618;52.018;5.576;2023-03-14T07:36:02;1.33;;;0.60;;
67819;SDS011;54618;52.018;5.576;2023-03-14T07:38:28;2.30;;;0.70;;
67819;SDS011;54618;52.018;5.576;2023-03-14T07:41:00;1.55;;;0.63;;
67819;SDS011;54618;52.018;5.576;2023-03-14T07:43:27;1.52;;;0.75;;
67819;SDS011;54618;52.018;5.576;2023-03-14T07:45:52;1.50;;;0.70;;
67819;SDS011;54618;52.018;5.576;2023-03-14T07:48:18;1.40;;;0.57;;
67819;SDS011;54618;52.018;5.576;2023-03-14T07:50:47;1.63;;;0.60;;
67819;SDS011;54618;52.018;5.576;2023-03-14T07:53:13;1.50;;;0.50;;
67819;SDS011;54618;52.018;5.576;2023-03-14T07:55:40;1.45;;;0.73;;
67819;SDS011;54618;52.018;5.576;2023-03-14T07:58:06;2.10;;;0.73;;
67819;SDS011;54618;52.018;5.576;2023-03-14T08:00:31;1.23;;;0.40;;
67819;SDS011;54618;52.018;5.576;2023-03-14T08:02:57;0.70;;;0.40;;
67819;SDS011;54618;52.018;5.576;2023-03-14T08:05:23;1.77;;;0.70;;
67819;SDS011;54618;52.018;5.576;2023-03-14T08:07:49;1.33;;;0.63;;
67819;SDS011;54618;52.018;5.576;2023-03-14T08:10:14;1.70;;;0.50;;
67819;SDS011;54618;52.018;5.576;2023-03-14T08:12:48;1.83;;;0.63;;
67819;SDS011;54618;52.018;5.576;2023-03-14T08:15:21;1.08;;;0.47;;
67819;SDS011;54618;52.018;5.576;2023-03-14T08:17:48;1.02;;;0.50;;
67819;SDS011;54618;52.018;5.576;2023-03-14T08:20:16;3.17;;;0.70;;
67819;SDS011;54618;52.018;5.576;2023-03-14T08:22:42;1.48;;;0.60;;
67819;SDS011;54618;52.018;5.576;2023-03-14T08:25:08;2.03;;;0.60;;
67819;SDS011;54618;52.018;5.576;2023-03-14T08:27:34;1.77;;;0.60;;
67819;SDS011;54618;52.018;5.576;2023-03-14T08:30:02;1.38;;;0.57;;
67819;SDS011;54618;52.018;5.576;2023-03-14T08:32:29;2.00;;;0.60;;
67819;SDS011;54618;52.018;5.576;2023-03-14T08:34:54;1.80;;;0.60;;
67819;SDS011;54618;52.018;5.576;2023-03-14T08:37:20;1.80;;;0.60;;
67819;SDS011;54618;52.018;5.576;2023-03-14T08:39:46;1.05;;;0.50;;
67819;SDS011;54618;52.018;5.576;2023-03-14T08:42:12;2.03;;;0.60;;
67819;SDS011;54618;52.018;5.576;2023-03-14T08:44:37;1.25;;;0.50;;
67819;SDS011;54618;52.018;5.576;2023-03-14T08:47:03;1.85;;;0.60;;
67819;SDS011;54618;52.018;5.576;2023-03-14T08:49:28;1.48;;;0.50;;
67819;SDS011;54618;52.018;5.576;2023-03-14T08:51:54;0.90;;;0.43;;
67819;SDS011;54618;52.018;5.576;2023-03-14T08:54:19;1.17;;;0.43;;
67819;SDS011;54618;52.018;5.576;2023-03-14T08:56:45;1.25;;;0.60;;
67819;SDS011;54618;52.018;5.576;2023-03-14T08:59:11;1.42;;;0.45;;
67819;SDS011;54618;52.018;5.576;2023-03-14T09:01:36;1.48;;;0.52;;
67819;SDS011;54618;52.018;5.576;2023-03-14T09:04:02;1.10;;;0.57;;
67819;SDS011;54618;52.018;5.576;2023-03-14T09:06:28;1.40;;;0.52;;
67819;SDS011;54618;52.018;5.576;2023-03-14T09:08:53;1.92;;;0.60;;
67819;SDS011;54618;52.018;5.576;2023-03-14T09:11:19;1.25;;;0.50;;
67819;SDS011;54618;52.018;5.576;2023-03-14T09:13:45;1.05;;;0.50;;
67819;SDS011;54618;52.018;5.576;2023-03-14T09:16:11;2.17;;;0.50;;
67819;SDS011;54618;52.018;5.576;2023-03-14T09:18:36;0.88;;;0.50;;
67819;SDS011;54618;52.018;5.576;2023-03-14T09:21:02;2.55;;;0.60;;
67819;SDS011;54618;52.018;5.576;2023-03-14T09:23:28;1.60;;;0.50;;
67819;SDS011;54618;52.018;5.576;2023-03-14T09:25:59;0.82;;;0.30;;
67819;SDS011;54618;52.018;5.576;2023-03-14T09:28:25;1.27;;;0.50;;
67819;SDS011;54618;52.018;5.576;2023-03-14T09:30:51;1.13;;;0.50;;
67819;SDS011;54618;52.018;5.576;2023-03-14T09:33:17;0.88;;;0.45;;
67819;SDS011;54618;52.018;5.576;2023-03-14T09:35:43;1.90;;;0.47;;
67819;SDS011;54618;52.018;5.576;2023-03-14T09:38:08;1.17;;;0.32;;
67819;SDS011;54618;52.018;5.576;2023-03-14T09:40:34;1.50;;;0.40;;
67819;SDS011;54618;52.018;5.576;2023-03-14T09:43:01;1.50;;;0.50;;
67819;SDS011;54618;52.018;5.576;2023-03-14T09:45:29;2.17;;;0.50;;
67819;SDS011;54618;52.018;5.576;2023-03-14T09:47:58;2.33;;;0.45;;
67819;SDS011;54618;52.018;5.576;2023-03-14T09:50:27;0.90;;;0.45;;
67819;SDS011;54618;52.018;5.576;2023-03-14T09:53:05;0.98;;;0.40;;
67819;SDS011;54618;52.018;5.576;2023-03-14T09:55:36;1.20;;;0.50;;
67819;SDS011;54618;52.018;5.576;2023-03-14T09:58:02;1.45;;;0.50;;
67819;SDS011;54618;52.018;5.576;2023-03-14T10:00:34;2.08;;;0.60;;
67819;SDS011;54618;52.018;5.576;2023-03-14T10:05:39;1.05;;;0.43;;
67819;SDS011;54618;52.018;5.576;2023-03-14T10:08:06;2.33;;;0.60;;
67819;SDS011;54618;52.018;5.576;2023-03-14T10:10:34;1.52;;;0.40;;
67819;SDS011;54618;52.018;5.576;2023-03-14T10:13:34;1.88;;;0.50;;
67819;SDS011;54618;52.018;5.576;2023-03-14T10:15:54;1.38;;;0.50;;
67819;SDS011;54618;52.018;5.576;2023-03-14T10:18:24;2.08;;;0.55;;
67819;SDS011;54618;52.018;5.576;2023-03-14T10:21:01;1.73;;;0.40;;
67819;SDS011;54618;52.018;5.576;2023-03-14T10:23:28;1.77;;;0.60;;
67819;SDS011;54618;52.018;5.576;2023-03-14T10:31:12;1.45;;;0.40;;
67819;SDS011;54618;52.018;5.576;2023-03-14T10:33:38;2.63;;;0.60;;
67819;SDS011;54618;52.018;5.576;2023-03-14T10:38:41;1.52;;;0.40;;
67819;SDS011;54618;52.018;5.576;2023-03-14T10:41:20;1.85;;;0.55;;
67819;SDS011;54618;52.018;5.576;2023-03-14T10:43:50;1.05;;;0.50;;
67819;SDS011;54618;52.018;5.576;2023-03-14T10:46:18;0.65;;;0.35;;
67819;SDS011;54618;52.018;5.576;2023-03-14T10:48:45;1.52;;;0.50;;
67819;SDS011;54618;52.018;5.576;2023-03-14T10:56:17;2.28;;;0.60;;
67819;SDS011;54618;52.018;5.576;2023-03-14T10:58:45;1.90;;;0.65;;
67819;SDS011;54618;52.018;5.576;2023-03-14T11:01:26;1.92;;;0.52;;
67819;SDS011;54618;52.018;5.576;2023-03-14T11:04:05;1.83;;;0.60;;
67819;SDS011;54618;52.018;5.576;2023-03-14T11:06:56;2.20;;;0.60;;
67819;SDS011;54618;52.018;5.576;2023-03-14T11:15:19;1.98;;;0.60;;
67819;SDS011;54618;52.018;5.576;2023-03-14T11:29:28;3.55;;;0.60;;
67819;SDS011;54618;52.018;5.576;2023-03-14T11:32:10;2.25;;;0.65;;
67819;SDS011;54618;52.018;5.576;2023-03-14T11:35:04;2.13;;;0.65;;
67819;SDS011;54618;52.018;5.576;2023-03-14T11:38:18;2.20;;;0.80;;
67819;SDS011;54618;52.018;5.576;2023-03-14T11:41:09;2.30;;;0.60;;
67819;SDS011;54618;52.018;5.576;2023-03-14T11:43:39;3.03;;;0.63;;
67819;SDS011;54618;52.018;5.576;2023-03-14T11:46:11;3.83;;;0.90;;
67819;SDS011;54618;52.018;5.576;2023-03-14T11:51:37;2.80;;;0.77;;
67819;SDS011;54618;52.018;5.576;2023-03-14T11:54:08;2.85;;;0.63;;
67819;SDS011;54618;52.018;5.576;2023-03-14T11:59:15;3.25;;;1.10;;
67819;SDS011;54618;52.018;5.576;2023-03-14T12:01:48;2.17;;;0.57;;
67819;SDS011;54618;52.018;5.576;2023-03-14T12:04:25;2.97;;;0.82;;
67819;SDS011;54618;52.018;5.576;2023-03-14T12:07:08;4.22;;;0.80;;
67819;SDS011;54618;52.018;5.576;2023-03-14T12:09:42;4.97;;;0.90;;
67819;SDS011;54618;52.018;5.576;2023-03-14T12:12:10;3.50;;;0.90;;
67819;SDS011;54618;52.018;5.576;2023-03-14T12:14:52;4.03;;;0.82;;
67819;SDS011;54618;52.018;5.576;2023-03-14T12:17:21;3.25;;;0.70;;
67819;SDS011;54618;52.018;5.576;2023-03-14T12:19:59;4.17;;;0.70;;
67819;SDS011;54618;52.018;5.576;2023-03-14T12:22:32;1.83;;;0.60;;
67819;SDS011;54618;52.018;5.576;2023-03-14T12:25:00;2.45;;;0.70;;
67819;SDS011;54618;52.018;5.576;2023-03-14T12:28:21;2.47;;;0.90;;
67819;SDS011;54618;52.018;5.576;2023-03-14T12:41:04;2.63;;;0.60;;
67819;SDS011;54618;52.018;5.576;2023-03-14T12:43:37;3.85;;;0.70;;
67819;SDS011;54618;52.018;5.576;2023-03-14T12:48:42;2.78;;;0.80;;
67819;SDS011;54618;52.018;5.576;2023-03-14T12:51:14;4.82;;;0.90;;
67819;SDS011;54618;52.018;5.576;2023-03-14T12:54:03;3.25;;;0.80;;
67819;SDS011;54618;52.018;5.576;2023-03-14T12:59:27;2.78;;;0.63;;
67819;SDS011;54618;52.018;5.576;2023-03-14T13:01:56;2.63;;;0.65;;
67819;SDS011;54618;52.018;5.576;2023-03-14T13:04:43;2.42;;;0.80;;
67819;SDS011;54618;52.018;5.576;2023-03-14T13:07:29;2.33;;;0.70;;
67819;SDS011;54618;52.018;5.576;2023-03-14T13:10:02;3.00;;;0.70;;
67819;SDS011;54618;52.018;5.576;2023-03-14T13:15:28;3.08;;;0.93;;
67819;SDS011;54618;52.018;5.576;2023-03-14T13:18:46;3.38;;;0.85;;
67819;SDS011;54618;52.018;5.576;2023-03-14T13:20:55;3.40;;;0.77;;
67819;SDS011;54618;52.018;5.576;2023-03-14T13:23:32;1.95;;;0.55;;
67819;SDS011;54618;52.018;5.576;2023-03-14T13:26:00;1.80;;;0.80;;
67819;SDS011;54618;52.018;5.576;2023-03-14T13:28:27;2.33;;;0.60;;
67819;SDS011;54618;52.018;5.576;2023-03-14T13:30:58;3.22;;;0.90;;
67819;SDS011;54618;52.018;5.576;2023-03-14T13:33:27;2.45;;;0.80;;
67819;SDS011;54618;52.018;5.576;2023-03-14T13:35:56;2.97;;;0.70;;
67819;SDS011;54618;52.018;5.576;2023-03-14T13:38:24;3.28;;;0.60;;
67819;SDS011;54618;52.018;5.576;2023-03-14T13:40:53;5.25;;;0.65;;
67819;SDS011;54618;52.018;5.576;2023-03-14T13:43:33;3.60;;;0.70;;
67819;SDS011;54618;52.018;5.576;2023-03-14T13:46:07;4.15;;;0.80;;
67819;SDS011;54618;52.018;5.576;2023-03-14T13:48:42;6.05;;;0.80;;
67819;SDS011;54618;52.018;5.576;2023-03-14T13:51:11;2.83;;;0.52;;
67819;SDS011;54618;52.018;5.576;2023-03-14T13:53:52;3.03;;;0.70;;
67819;SDS011;54618;52.018;5.576;2023-03-14T13:56:23;2.95;;;0.80;;
67819;SDS011;54618;52.018;5.576;2023-03-14T13:58:50;2.78;;;0.70;;
67819;SDS011;54618;52.018;5.576;2023-03-14T14:04:05;2.55;;;0.80;;
67819;SDS011;54618;52.018;5.576;2023-03-14T14:09:04;2.63;;;0.67;;
67819;SDS011;54618;52.018;5.576;2023-03-14T14:14:06;3.83;;;0.80;;
67819;SDS011;54618;52.018;5.576;2023-03-14T14:16:39;3.40;;;0.88;;
67819;SDS011;54618;52.018;5.576;2023-03-14T14:19:06;3.13;;;0.90;;
67819;SDS011;54618;52.018;5.576;2023-03-14T14:21:32;3.17;;;0.80;;
67819;SDS011;54618;52.018;5.576;2023-03-14T14:23:58;4.65;;;0.90;;
67819;SDS011;54618;52.018;5.576;2023-03-14T14:26:25;2.55;;;0.90;;
67819;SDS011;54618;52.018;5.576;2023-03-14T14:28:58;3.45;;;0.70;;
67819;SDS011;54618;52.018;5.576;2023-03-14T14:31:26;3.20;;;0.90;;
67819;SDS011;54618;52.018;5.576;2023-03-14T14:34:02;2.45;;;0.70;;
67819;SDS011;54618;52.018;5.576;2023-03-14T14:36:29;2.42;;;0.70;;
67819;SDS011;54618;52.018;5.576;2023-03-14T14:39:12;3.22;;;0.90;;
67819;SDS011;54618;52.018;5.576;2023-03-14T14:41:51;2.70;;;0.80;;
67819;SDS011;54618;52.018;5.576;2023-03-14T14:44:38;3.53;;;0.80;;
67819;SDS011;54618;52.018;5.576;2023-03-14T14:47:03;2.55;;;0.68;;
67819;SDS011;54618;52.018;5.576;2023-03-14T14:49:30;3.15;;;0.85;;
67819;SDS011;54618;52.018;5.576;2023-03-14T14:52:04;2.60;;;0.68;;
67819;SDS011;54618;52.018;5.576;2023-03-14T14:54:38;3.50;;;0.80;;
67819;SDS011;54618;52.018;5.576;2023-03-14T14:57:18;4.40;;;0.95;;
67819;SDS011;54618;52.018;5.576;2023-03-14T14:59:47;4.53;;;0.90;;
67819;SDS011;54618;52.018;5.576;2023-03-14T15:04:48;2.72;;;0.50;;
67819;SDS011;54618;52.018;5.576;2023-03-14T15:07:14;3.45;;;0.90;;
67819;SDS011;54618;52.018;5.576;2023-03-14T15:09:41;3.80;;;0.70;;
67819;SDS011;54618;52.018;5.576;2023-03-14T15:12:07;2.85;;;0.70;;
67819;SDS011;54618;52.018;5.576;2023-03-14T15:14:33;2.10;;;0.60;;
67819;SDS011;54618;52.018;5.576;2023-03-14T15:16:58;2.22;;;0.65;;
67819;SDS011;54618;52.018;5.576;2023-03-14T15:19:24;3.53;;;0.80;;
67819;SDS011;54618;52.018;5.576;2023-03-14T15:21:54;2.60;;;0.90;;
67819;SDS011;54618;52.018;5.576;2023-03-14T15:24:19;3.15;;;0.93;;
67819;SDS011;54618;52.018;5.576;2023-03-14T15:26:48;3.33;;;0.80;;
67819;SDS011;54618;52.018;5.576;2023-03-14T15:29:14;2.20;;;0.68;;
67819;SDS011;54618;52.018;5.576;2023-03-14T15:31:40;3.40;;;0.80;;
67819;SDS011;54618;52.018;5.576;2023-03-14T15:34:05;2.95;;;0.75;;
67819;SDS011;54618;52.018;5.576;2023-03-14T15:36:32;3.90;;;0.80;;
67819;SDS011;54618;52.018;5.576;2023-03-14T15:38:59;1.77;;;0.55;;
67819;SDS011;54618;52.018;5.576;2023-03-14T15:41:25;3.35;;;0.80;;
67819;SDS011;54618;52.018;5.576;2023-03-14T15:43:51;4.30;;;0.95;;
67819;SDS011;54618;52.018;5.576;2023-03-14T15:46:19;3.88;;;0.90;;
67819;SDS011;54618;52.018;5.576;2023-03-14T15:48:46;1.95;;;0.60;;
67819;SDS011;54618;52.018;5.576;2023-03-14T15:51:13;3.75;;;0.70;;
67819;SDS011;54618;52.018;5.576;2023-03-14T15:53:40;2.72;;;0.70;;
67819;SDS011;54618;52.018;5.576;2023-03-14T15:56:07;3.05;;;0.70;;
67819;SDS011;54618;52.018;5.576;2023-03-14T15:58:35;3.28;;;0.75;;
67819;SDS011;54618;52.018;5.576;2023-03-14T16:01:01;3.28;;;0.60;;
67819;SDS011;54618;52.018;5.576;2023-03-14T16:03:27;2.40;;;0.60;;
67819;SDS011;54618;52.018;5.576;2023-03-14T16:05:54;2.67;;;0.60;;
67819;SDS011;54618;52.018;5.576;2023-03-14T16:08:20;4.47;;;1.33;;